createdAt,value
2022-08-14T00:01:11.453Z,101299.03
2022-08-14T00:03:40.670Z,101297.19
2022-08-14T00:06:13.847Z,101291.34
2022-08-14T00:08:52.441Z,101295.31
2022-08-14T00:11:19.732Z,101300.09
2022-08-14T00:13:52.714Z,101289.94
2022-08-14T00:16:41.517Z,101289.38
2022-08-14T00:19:19.565Z,101285.06
2022-08-14T00:21:51.922Z,101277.56
2022-08-14T00:24:28.636Z,101275.03
2022-08-14T00:27:01.870Z,101277.03
2022-08-14T00:29:33.198Z,101274.66
2022-08-14T00:32:51.892Z,101280.41
2022-08-14T00:34:53.377Z,101276.25
2022-08-14T00:37:20.031Z,101271.56
2022-08-14T00:39:46.788Z,101265.72
2022-08-14T00:42:52.452Z,101252.88
2022-08-14T00:45:00.066Z,101262.13
2022-08-14T00:47:27.351Z,101256.44
2022-08-14T00:49:56.354Z,101259.66
2022-08-14T00:52:25.334Z,101251.28
2022-08-14T00:54:57.882Z,101253.56
2022-08-14T00:57:30.737Z,101249.69
2022-08-14T01:00:00.488Z,101249.44
2022-08-14T01:02:31.761Z,101242.34
2022-08-14T01:05:00.759Z,101241.81
2022-08-14T01:07:29.830Z,101237.97
2022-08-14T01:10:06.198Z,101238.38
2022-08-14T01:12:33.861Z,101237.00
2022-08-14T01:15:09.326Z,101240.22
2022-08-14T01:17:54.331Z,101229.09
2022-08-14T01:20:40.873Z,101227.84
2022-08-14T01:23:15.839Z,101225.34
2022-08-14T01:25:46.039Z,101216.84
2022-08-14T01:28:47.313Z,101220.09
2022-08-14T01:30:59.437Z,101224.69
2022-08-14T01:33:29.204Z,101213.50
2022-08-14T01:36:03.476Z,101209.34
2022-08-14T01:38:37.265Z,101202.66
2022-08-14T01:41:15.936Z,101213.41
2022-08-14T01:43:56.426Z,101204.75
2022-08-14T01:46:25.028Z,101199.06
2022-08-14T01:48:52.351Z,101195.88
2022-08-14T01:51:24.904Z,101190.03
2022-08-14T01:53:56.492Z,101189.59
2022-08-14T01:56:39.479Z,101195.06
2022-08-14T01:59:09.753Z,101189.22
2022-08-14T02:01:37.938Z,101185.19
2022-08-14T02:04:40.731Z,101177.53
2022-08-14T02:06:55.242Z,101176.81
2022-08-14T02:09:22.844Z,101179.75
2022-08-14T02:11:54.356Z,101173.75
2022-08-14T02:14:30.981Z,101167.91
2022-08-14T02:17:00.120Z,101176.00
2022-08-14T02:19:31.672Z,101176.13
2022-08-14T02:22:03.147Z,101169.47
2022-08-14T02:24:39.111Z,101174.91
2022-08-14T02:28:23.734Z,101177.56
2022-08-14T02:29:59.840Z,101173.38
2022-08-14T02:32:36.506Z,101171.72
2022-08-14T02:35:19.271Z,101170.88
2022-08-14T02:37:49.712Z,101179.22
2022-08-14T02:40:18.980Z,101180.50
2022-08-14T02:42:54.174Z,101182.59
2022-08-14T02:45:22.265Z,101183.94
2022-08-14T02:47:49.628Z,101175.72
2022-08-14T02:50:27.268Z,101170.03
2022-08-14T02:52:57.291Z,101167.94
2022-08-14T02:55:30.893Z,101176.31
2022-08-14T02:57:58.021Z,101174.06
2022-08-14T03:00:25.255Z,101168.09
2022-08-14T03:02:58.593Z,101170.84
2022-08-14T03:05:30.165Z,101165.72
2022-08-14T03:08:16.007Z,101169.47
2022-08-14T03:10:49.283Z,101158.16
2022-08-14T03:13:20.943Z,101166.09
2022-08-14T03:15:54.980Z,101159.56
2022-08-14T03:18:30.885Z,101166.53
2022-08-14T03:21:08.075Z,101155.97
2022-08-14T03:23:38.724Z,101157.06
2022-08-14T03:26:08.443Z,101154.41
2022-08-14T03:28:36.739Z,101152.88
2022-08-14T03:31:08.409Z,101151.50
2022-08-14T03:33:41.019Z,101157.75
2022-08-14T03:37:37.632Z,101150.22
2022-08-14T03:39:15.410Z,101150.50
2022-08-14T03:41:48.070Z,101150.50
2022-08-14T03:45:27.139Z,101148.00
2022-08-14T03:47:02.882Z,101146.63
2022-08-14T03:49:30.401Z,101139.06
2022-08-14T03:52:00.715Z,101146.31
2022-08-14T03:54:28.203Z,101140.31
2022-08-14T03:56:54.984Z,101138.66
2022-08-14T03:59:21.641Z,101136.00
2022-08-14T04:01:58.251Z,101137.84
2022-08-14T04:04:33.524Z,101135.47
2022-08-14T04:07:00.804Z,101137.28
2022-08-14T04:09:28.200Z,101132.09
2022-08-14T04:11:58.243Z,101133.91
2022-08-14T04:14:26.405Z,101142.69
2022-08-14T04:16:52.882Z,101140.03
2022-08-14T04:19:24.083Z,101140.19
2022-08-14T04:22:02.992Z,101137.66
2022-08-14T04:24:30.975Z,101132.78
2022-08-14T04:27:09.383Z,101134.88
2022-08-14T04:29:38.364Z,101132.63
2022-08-14T04:32:57.639Z,101132.03
2022-08-14T04:34:54.983Z,101129.69
2022-08-14T04:37:42.193Z,101134.25
2022-08-14T04:40:28.556Z,101123.94
2022-08-14T04:43:17.107Z,101123.22
2022-08-14T04:45:45.276Z,101125.88
2022-08-14T04:48:39.746Z,101132.97
2022-08-14T04:51:09.153Z,101124.22
2022-08-14T04:53:42.765Z,101129.38
2022-08-14T04:56:30.832Z,101133.53
2022-08-14T04:59:05.118Z,101128.13
2022-08-14T05:01:39.897Z,101121.03
2022-08-14T05:04:08.270Z,101113.94
2022-08-14T05:06:39.108Z,101107.56
2022-08-14T05:09:13.935Z,101112.69
2022-08-14T05:11:40.746Z,101109.78
2022-08-14T05:14:16.716Z,101107.84
2022-08-14T05:16:53.890Z,101108.28
2022-08-14T05:19:29.309Z,101096.50
2022-08-14T05:22:16.118Z,101104.72
2022-08-14T05:24:50.598Z,101102.47
2022-08-14T05:27:19.973Z,101101.09
2022-08-14T05:29:50.434Z,101101.22
2022-08-14T05:32:17.045Z,101102.06
2022-08-14T05:34:45.822Z,101097.59
2022-08-14T05:37:13.666Z,101094.69
2022-08-14T05:39:43.163Z,101094.66
2022-08-14T05:42:21.560Z,101096.31
2022-08-14T05:44:54.777Z,101101.50
2022-08-14T05:47:21.993Z,101090.16
2022-08-14T05:49:48.518Z,101086.94
2022-08-14T05:52:18.100Z,101088.47
2022-08-14T05:54:44.918Z,101080.31
2022-08-14T05:57:11.457Z,101071.28
2022-08-14T05:59:39.543Z,101066.56
2022-08-14T06:02:11.160Z,101058.50
2022-08-14T06:04:38.987Z,101071.06
2022-08-14T06:07:06.169Z,101069.63
2022-08-14T06:09:35.424Z,101074.66
2022-08-14T06:12:08.701Z,101079.88
2022-08-14T06:14:36.103Z,101073.91
2022-08-14T06:17:03.611Z,101080.50
2022-08-14T06:19:30.160Z,101072.06
2022-08-14T06:21:58.233Z,101079.03
2022-08-14T06:24:26.198Z,101080.44
2022-08-14T06:26:56.923Z,101078.13
2022-08-14T06:29:32.344Z,101082.97
2022-08-14T06:32:38.051Z,101082.44
2022-08-14T06:35:09.921Z,101083.50
2022-08-14T06:38:05.917Z,101075.78
2022-08-14T06:40:34.874Z,101080.50
2022-08-14T06:43:06.820Z,101073.44
2022-08-14T06:45:38.653Z,101078.38
2022-08-14T06:48:14.516Z,101081.09
2022-08-14T06:50:45.445Z,101074.72
2022-08-14T06:53:14.639Z,101081.94
2022-08-14T06:55:56.137Z,101080.63
2022-08-14T06:58:29.362Z,101083.00
2022-08-14T07:01:20.339Z,101073.13
2022-08-14T07:04:18.894Z,101085.81
2022-08-14T07:06:50.043Z,101078.53
2022-08-14T07:09:22.609Z,101067.97
2022-08-14T07:11:50.460Z,101060.88
2022-08-14T07:14:17.000Z,101063.91
2022-08-14T07:16:43.507Z,101061.75
2022-08-14T07:19:11.321Z,101053.66
2022-08-14T07:21:39.658Z,101050.19
2022-08-14T07:24:09.623Z,101055.50
2022-08-14T07:26:48.676Z,101048.72
2022-08-14T07:29:15.227Z,101046.78
2022-08-14T07:31:44.229Z,101051.25
2022-08-14T07:34:11.418Z,101050.66
2022-08-14T07:36:38.082Z,101051.47
2022-08-14T07:39:20.118Z,101048.31
2022-08-14T07:41:54.345Z,101050.81
2022-08-14T07:44:29.543Z,101048.31
2022-08-14T07:47:00.677Z,101045.31
2022-08-14T07:49:28.252Z,101045.97
2022-08-14T07:51:54.792Z,101041.13
2022-08-14T07:54:23.449Z,101043.81
2022-08-14T07:57:06.303Z,101042.94
2022-08-14T07:59:40.984Z,101039.06
2022-08-14T08:02:18.061Z,101039.69
2022-08-14T08:04:59.355Z,101037.97
2022-08-14T08:07:29.970Z,101023.09
2022-08-14T08:09:58.339Z,101030.59
2022-08-14T08:12:29.469Z,101037.59
2022-08-14T08:15:02.744Z,101041.84
2022-08-14T08:17:34.837Z,101027.94
2022-08-14T08:20:06.624Z,101027.91
2022-08-14T08:22:35.571Z,101022.97
2022-08-14T08:25:02.072Z,101023.91
2022-08-14T08:27:28.531Z,101019.41
2022-08-14T08:30:10.214Z,101022.38
2022-08-14T08:32:42.346Z,101026.69
2022-08-14T08:35:25.733Z,101025.41
2022-08-14T08:39:15.583Z,101012.53
2022-08-14T08:41:02.814Z,101002.59
2022-08-14T08:43:35.856Z,101010.19
2022-08-14T08:46:05.921Z,101003.19
2022-08-14T08:51:42.868Z,101009.31
2022-08-14T08:54:18.331Z,101014.66
2022-08-14T08:56:52.436Z,101013.56
2022-08-14T08:59:31.215Z,101013.53
2022-08-14T09:02:05.314Z,101015.91
2022-08-14T09:04:45.572Z,101012.50
2022-08-14T09:07:20.109Z,101014.63
2022-08-14T09:09:58.588Z,101004.97
2022-08-14T09:12:29.821Z,100993.53
2022-08-14T09:15:12.184Z,100989.91
2022-08-14T09:17:42.312Z,100979.91
2022-08-14T09:20:11.910Z,100978.72
2022-08-14T09:22:42.406Z,100977.75
2022-08-14T09:25:15.127Z,100972.06
2022-08-14T09:27:41.904Z,100976.88
2022-08-14T09:30:31.073Z,100974.72
2022-08-14T09:33:11.645Z,100979.56
2022-08-14T09:36:04.000Z,100983.13
2022-08-14T09:38:53.724Z,100964.22
2022-08-14T09:42:21.853Z,100960.59
2022-08-14T09:44:42.834Z,100958.19
2022-08-14T09:47:14.606Z,100950.84
2022-08-14T09:49:42.787Z,100946.94
2022-08-14T09:52:33.469Z,100953.19
2022-08-14T09:54:56.741Z,100941.66
2022-08-14T09:57:27.547Z,100940.25
2022-08-14T09:59:55.788Z,100931.63
2022-08-14T10:02:34.515Z,100934.75
2022-08-14T10:05:09.076Z,100923.41
2022-08-14T10:07:53.530Z,100923.84
2022-08-14T10:10:35.085Z,100919.94
2022-08-14T10:13:03.772Z,100914.16
2022-08-14T10:15:33.322Z,100919.13
2022-08-14T10:18:13.283Z,100913.13
2022-08-14T10:23:40.427Z,100909.22
2022-08-14T10:26:08.000Z,100902.63
2022-08-14T10:29:18.071Z,100895.19
2022-08-14T10:31:43.248Z,100887.75
2022-08-14T10:34:19.718Z,100894.34
2022-08-14T10:36:50.155Z,100888.75
2022-08-14T10:39:28.599Z,100883.94
2022-08-14T10:42:16.626Z,100888.06
2022-08-14T10:44:48.807Z,100868.22
2022-08-14T10:47:39.553Z,100876.09
2022-08-14T10:50:06.478Z,100867.72
2022-08-14T10:52:36.047Z,100858.97
2022-08-14T10:55:14.675Z,100858.78
2022-08-14T10:57:52.819Z,100850.66
2022-08-14T11:00:30.123Z,100855.75
2022-08-14T11:03:09.358Z,100859.47
2022-08-14T11:05:48.837Z,100860.66
2022-08-14T11:08:32.512Z,100855.88
2022-08-14T11:11:02.083Z,100854.78
2022-08-14T11:13:30.191Z,100847.34
2022-08-14T11:16:02.692Z,100853.53
2022-08-14T11:18:36.244Z,100848.59
2022-08-14T11:21:08.264Z,100842.78
2022-08-14T11:23:44.146Z,100847.03
2022-08-14T11:26:12.431Z,100839.16
2022-08-14T11:28:47.381Z,100828.91
2022-08-14T11:31:18.226Z,100841.16
2022-08-14T11:33:49.607Z,100834.47
2022-08-14T11:36:17.221Z,100825.31
2022-08-14T11:38:46.474Z,100825.97
2022-08-14T11:41:14.306Z,100822.78
2022-08-14T11:43:57.915Z,100827.88
2022-08-14T11:46:30.830Z,100813.13
2022-08-14T11:49:06.245Z,100824.31
2022-08-14T11:51:38.110Z,100823.31
2022-08-14T11:54:34.414Z,100821.06
2022-08-14T11:57:02.261Z,100827.78
2022-08-14T11:59:33.574Z,100824.06
2022-08-14T12:03:01.779Z,100812.63
2022-08-14T12:04:58.625Z,100815.09
2022-08-14T12:07:25.315Z,100814.78
2022-08-14T12:09:55.971Z,100808.00
2022-08-14T12:12:35.153Z,100814.47
2022-08-14T12:15:05.433Z,100816.69
2022-08-14T12:17:47.460Z,100805.66
2022-08-14T12:20:16.407Z,100804.00
2022-08-14T12:22:57.345Z,100806.59
2022-08-14T12:25:24.822Z,100799.56
2022-08-14T12:27:54.609Z,100788.38
2022-08-14T12:30:39.641Z,100792.88
2022-08-14T12:33:25.706Z,100781.72
2022-08-14T12:35:56.282Z,100769.13
2022-08-14T12:38:43.931Z,100765.50
2022-08-14T12:41:21.063Z,100776.16
2022-08-14T12:43:55.534Z,100759.50
2022-08-14T12:46:27.227Z,100744.81
2022-08-14T12:48:56.154Z,100750.69
2022-08-14T12:51:27.207Z,100740.97
2022-08-14T12:53:59.262Z,100740.38
2022-08-14T12:56:33.358Z,100727.72
2022-08-14T12:59:01.654Z,100724.78
2022-08-14T13:01:31.131Z,100726.41
2022-08-14T13:04:13.104Z,100719.84
2022-08-14T13:06:41.821Z,100715.97
2022-08-14T13:09:13.646Z,100724.56
2022-08-14T13:11:59.292Z,100720.88
2022-08-14T13:14:40.641Z,100727.53
2022-08-14T13:17:10.904Z,100712.22
2022-08-14T13:19:40.488Z,100723.91
2022-08-14T13:22:09.936Z,100716.59
2022-08-14T13:24:39.428Z,100715.41
2022-08-14T13:27:06.571Z,100717.81
2022-08-14T13:29:43.808Z,100713.31
2022-08-14T13:32:15.107Z,100707.78
2022-08-14T13:34:43.719Z,100706.59
2022-08-14T13:37:14.508Z,100704.25
2022-08-14T13:39:56.187Z,100705.84
2022-08-14T13:42:27.689Z,100698.34
2022-08-14T13:44:59.870Z,100696.56
2022-08-14T13:47:30.599Z,100692.66
2022-08-14T13:50:01.409Z,100696.41
2022-08-14T13:52:59.159Z,100698.59
2022-08-14T13:55:22.939Z,100686.16
2022-08-14T13:58:02.961Z,100691.41
2022-08-14T14:00:36.002Z,100690.44
2022-08-14T14:03:23.253Z,100675.41
2022-08-14T14:05:54.380Z,100674.19
2022-08-14T14:08:46.138Z,100676.78
2022-08-14T14:11:11.113Z,100668.19
2022-08-14T14:13:42.075Z,100672.09
2022-08-14T14:16:15.070Z,100673.13
2022-08-14T14:18:52.111Z,100671.06
2022-08-14T14:21:21.765Z,100671.28
2022-08-14T14:23:49.303Z,100672.09
2022-08-14T14:26:23.360Z,100669.34
2022-08-14T14:28:56.935Z,100662.09
2022-08-14T14:31:29.893Z,100661.53
2022-08-14T14:34:01.011Z,100658.59
2022-08-14T14:36:35.246Z,100659.03
2022-08-14T14:39:07.053Z,100654.34
2022-08-14T14:41:43.903Z,100658.72
2022-08-14T14:44:16.549Z,100644.75
2022-08-14T14:46:50.026Z,100648.38
2022-08-14T14:49:18.648Z,100654.97
2022-08-14T14:51:51.168Z,100649.91
2022-08-14T14:54:31.087Z,100653.53
2022-08-14T14:57:00.539Z,100636.38
2022-08-14T14:59:33.268Z,100634.00
2022-08-14T15:02:06.204Z,100634.56
2022-08-14T15:04:43.886Z,100629.50
2022-08-14T15:07:12.328Z,100630.88
2022-08-14T15:09:39.243Z,100625.66
2022-08-14T15:12:34.335Z,100626.19
2022-08-14T15:14:58.170Z,100625.44
2022-08-14T15:17:41.534Z,100620.22
2022-08-14T15:20:17.619Z,100619.03
2022-08-14T15:22:57.639Z,100620.16
2022-08-14T15:25:24.305Z,100616.41
2022-08-14T15:27:54.563Z,100611.66
2022-08-14T15:30:24.137Z,100602.72
2022-08-14T15:32:51.629Z,100599.44
2022-08-14T15:35:22.445Z,100600.09
2022-08-14T15:37:55.467Z,100604.13
2022-08-14T15:40:23.048Z,100604.69
2022-08-14T15:42:49.579Z,100604.50
2022-08-14T15:45:17.277Z,100603.97
2022-08-14T15:47:44.138Z,100599.56
2022-08-14T15:50:13.007Z,100596.53
2022-08-14T15:52:41.498Z,100596.84
2022-08-14T15:55:14.931Z,100593.78
2022-08-14T15:58:02.164Z,100592.09
2022-08-14T16:00:52.764Z,100588.56
2022-08-14T16:03:24.907Z,100585.34
2022-08-14T16:05:53.676Z,100581.97
2022-08-14T16:08:29.441Z,100587.06
2022-08-14T16:11:01.390Z,100585.94
2022-08-14T16:13:42.118Z,100581.16
2022-08-14T16:16:34.462Z,100578.84
2022-08-14T16:19:00.837Z,100580.56
2022-08-14T16:21:31.643Z,100577.69
2022-08-14T16:24:00.385Z,100578.84
2022-08-14T16:26:29.776Z,100579.72
2022-08-14T16:29:07.351Z,100575.50
2022-08-14T16:31:37.831Z,100570.75
2022-08-14T16:34:44.037Z,100563.72
2022-08-14T16:36:54.040Z,100559.84
2022-08-14T16:39:22.488Z,100562.22
2022-08-14T16:41:52.430Z,100555.19
2022-08-14T16:44:21.958Z,100563.13
2022-08-14T16:47:02.157Z,100563.94
2022-08-14T16:49:50.589Z,100549.94
2022-08-14T16:52:25.513Z,100555.41
2022-08-14T16:55:04.518Z,100551.81
2022-08-14T16:57:32.336Z,100548.03
2022-08-14T16:59:59.581Z,100550.81
2022-08-14T17:02:44.080Z,100548.59
2022-08-14T17:05:16.965Z,100546.31
2022-08-14T17:08:03.379Z,100544.38
2022-08-14T17:10:52.798Z,100536.41
2022-08-14T17:13:27.337Z,100533.63
2022-08-14T17:16:24.742Z,100544.88
2022-08-14T17:19:00.596Z,100535.84
2022-08-14T17:21:31.618Z,100535.78
2022-08-14T17:24:51.508Z,100535.31
2022-08-14T17:26:55.007Z,100538.63
2022-08-14T17:29:23.592Z,100533.66
2022-08-14T17:32:06.338Z,100525.81
2022-08-14T17:34:53.597Z,100531.91
2022-08-14T17:37:34.200Z,100528.28
2022-08-14T17:40:15.408Z,100530.50
2022-08-14T17:42:51.070Z,100529.63
2022-08-14T17:45:26.969Z,100527.03
2022-08-14T17:47:59.272Z,100524.91
2022-08-14T17:50:59.031Z,100526.28
2022-08-14T17:53:30.540Z,100524.09
2022-08-14T17:56:01.145Z,100525.72
2022-08-14T17:58:38.429Z,100528.88
2022-08-14T18:01:06.007Z,100532.84
2022-08-14T18:03:51.029Z,100526.50
2022-08-14T18:06:39.969Z,100532.81
2022-08-14T18:09:25.821Z,100533.72
2022-08-14T18:12:03.700Z,100529.22
2022-08-14T18:14:48.411Z,100531.75
2022-08-14T18:17:20.649Z,100523.78
2022-08-14T18:19:51.098Z,100525.16
2022-08-14T18:22:31.326Z,100522.84
2022-08-14T18:25:02.192Z,100523.63
2022-08-14T18:27:41.588Z,100527.16
2022-08-14T18:30:33.048Z,100519.16
2022-08-14T18:32:59.106Z,100521.19
2022-08-14T18:35:58.186Z,100522.53
2022-08-14T18:38:42.883Z,100519.97
2022-08-14T18:41:36.936Z,100528.31
2022-08-14T18:44:10.250Z,100523.03
2022-08-14T18:47:09.895Z,100537.59
2022-08-14T18:50:00.724Z,100524.63
2022-08-14T18:52:29.626Z,100524.75
2022-08-14T18:54:59.605Z,100526.03
2022-08-14T18:57:27.214Z,100524.84
2022-08-14T19:00:39.685Z,100520.78
2022-08-14T19:03:08.704Z,100534.25
2022-08-14T19:05:41.211Z,100526.84
2022-08-14T19:08:17.093Z,100532.69
2022-08-14T19:10:46.875Z,100533.75
2022-08-14T19:13:47.955Z,100532.53
2022-08-14T19:16:22.986Z,100527.81
2022-08-14T19:18:52.097Z,100535.06
2022-08-14T19:21:30.605Z,100530.13
2022-08-14T19:24:27.855Z,100534.06
2022-08-14T19:27:24.100Z,100535.13
2022-08-14T19:30:19.228Z,100535.16
2022-08-14T19:32:50.989Z,100532.47
2022-08-14T19:35:19.634Z,100538.91
2022-08-14T19:37:52.374Z,100533.56
2022-08-14T19:40:35.227Z,100535.00
2022-08-14T19:43:06.537Z,100537.47
2022-08-14T19:45:38.390Z,100535.00
2022-08-14T19:48:12.494Z,100533.97
2022-08-14T19:50:41.301Z,100531.47
2022-08-14T19:53:17.247Z,100526.56
2022-08-14T19:55:58.587Z,100531.94
2022-08-14T19:58:54.431Z,100526.56
2022-08-14T20:01:36.596Z,100528.41
2022-08-14T20:04:46.899Z,100533.97
2022-08-14T20:06:56.262Z,100526.56
2022-08-14T20:11:07.736Z,100533.31
2022-08-14T20:12:28.689Z,100525.88
2022-08-14T20:15:06.238Z,100539.25
2022-08-14T20:17:40.733Z,100534.13
2022-08-14T20:20:31.607Z,100533.47
2022-08-14T20:23:02.093Z,100523.78
2022-08-14T20:25:37.946Z,100523.75
2022-08-14T20:28:31.834Z,100521.47
2022-08-14T20:31:19.381Z,100522.25
2022-08-14T20:34:04.013Z,100524.25
2022-08-14T20:36:36.779Z,100523.22
2022-08-14T20:39:08.369Z,100527.31
2022-08-14T20:41:34.869Z,100522.94
2022-08-14T20:44:21.000Z,100521.91
2022-08-14T20:47:00.967Z,100517.78
2022-08-14T20:49:29.107Z,100515.88
2022-08-14T20:52:00.322Z,100522.66
2022-08-14T20:54:36.551Z,100517.31
2022-08-14T20:57:17.747Z,100517.28
2022-08-14T20:59:53.041Z,100516.22
2022-08-14T21:02:34.666Z,100510.25
2022-08-14T21:05:17.003Z,100518.84
2022-08-14T21:07:51.182Z,100515.06
2022-08-14T21:10:35.619Z,100515.66
2022-08-14T21:13:26.769Z,100509.91
2022-08-14T21:15:57.329Z,100516.00
2022-08-14T21:18:26.260Z,100515.19
2022-08-14T21:20:56.606Z,100511.28
2022-08-14T21:23:23.273Z,100511.28
2022-08-14T21:25:50.126Z,100510.44
2022-08-14T21:28:27.678Z,100509.38
2022-08-14T21:30:58.014Z,100510.41
2022-08-14T21:33:25.090Z,100503.59
2022-08-14T21:35:55.083Z,100506.84
2022-08-14T21:38:31.119Z,100508.69
2022-08-14T21:41:02.629Z,100504.13
2022-08-14T21:43:52.638Z,100506.38
2022-08-14T21:46:19.504Z,100498.09
2022-08-14T21:48:46.050Z,100509.97
2022-08-14T21:51:55.306Z,100501.09
2022-08-14T21:54:01.218Z,100496.97
2022-08-14T21:56:38.643Z,100494.88
2022-08-14T21:59:17.725Z,100492.31
2022-08-14T22:02:01.003Z,100489.84
2022-08-14T22:04:39.891Z,100488.38
2022-08-14T22:07:18.159Z,100488.75
2022-08-14T22:09:55.405Z,100490.97
2022-08-14T22:12:58.388Z,100482.53
2022-08-14T22:15:14.768Z,100483.94
2022-08-14T22:17:44.218Z,100479.63
2022-08-14T22:20:20.461Z,100481.84
2022-08-14T22:22:47.447Z,100484.06
2022-08-14T22:25:17.375Z,100482.78
2022-08-14T22:27:56.241Z,100479.66
2022-08-14T22:30:24.677Z,100478.59
2022-08-14T22:32:56.714Z,100479.97
2022-08-14T22:35:24.743Z,100470.09
2022-08-14T22:38:01.588Z,100469.81
2022-08-14T22:41:02.087Z,100464.03
2022-08-14T22:43:27.184Z,100468.06
2022-08-14T22:45:58.078Z,100466.78
2022-08-14T22:48:29.499Z,100468.34
2022-08-14T22:50:56.185Z,100468.28
2022-08-14T22:53:24.114Z,100463.31
2022-08-14T22:55:56.651Z,100459.19
2022-08-14T22:58:31.392Z,100460.56
2022-08-14T23:01:04.584Z,100456.63
2022-08-14T23:03:34.753Z,100452.88
2022-08-14T23:06:04.357Z,100456.09
2022-08-14T23:09:00.011Z,100449.50
2022-08-14T23:11:28.883Z,100449.22
2022-08-14T23:13:55.433Z,100452.25
2022-08-14T23:16:24.070Z,100443.63
2022-08-14T23:18:53.545Z,100449.13
2022-08-14T23:21:24.389Z,100440.03
2022-08-14T23:23:55.037Z,100441.41
2022-08-14T23:26:49.168Z,100438.25
2022-08-14T23:29:11.440Z,100445.81
2022-08-14T23:31:39.361Z,100448.81
2022-08-14T23:34:08.324Z,100441.84
2022-08-14T23:36:52.645Z,100437.06
2022-08-14T23:39:21.704Z,100449.38
2022-08-14T23:41:53.835Z,100444.22
2022-08-14T23:44:24.283Z,100442.59
2022-08-14T23:46:57.155Z,100434.78
2022-08-14T23:49:57.040Z,100435.78
2022-08-14T23:52:50.578Z,100426.31
2022-08-14T23:55:05.386Z,100417.06
2022-08-14T23:57:31.812Z,100418.25
2022-08-14T23:59:59.556Z,100409.44
